Terminal Aerodrome Forecast
Issued by NWS

Home | Current Version | Previous Version | Text Only | Print | Product List | Glossary On
Versions: 1 2 3 4 5 6 7 8 9 10 11 12 13 14 15
000
FTUS46 KPDT 261720
TAFBDN
TAF
KBDN 261720Z 2618/2718 VRB06KT P6SM SCT080 BKN200
     FM262000 33009KT P6SM SCT050 BKN080
     FM270300 VRB04KT P6SM BKN070
     FM271500 VRB05KT P6SM SCT070=

USA.gov is the U.S. government's official web portal to all federal, state and local government web resources and services.